KEWR/EWR METAR and TAF weather

Enter ICAO airport designator
Station Type Date Time Source
KEWR METAR 2022/07/01 00:51 UTC NOAA

KEWR 010051Z 16005KT 10SM FEW070 FEW250 28/17 A3011 RMK AO2 SLP195 T02780172


Station Type Date Time Source
KEWR Decoded METAR 2022/07/01 00:51 UTC NOAA

NEWARK INTERNATIONAL AIRPORT, NJ, United States (KEWR) 40-41N 74-10W 7M
Jun 30, 2022 - 08:51 PM EDT / 2022.07.01 0051 UTC
Wind: from the SSE (160 degrees) at 6 MPH (5 KT):0
Visibility: 10 mile(s):0
Sky conditions: mostly clear
Temperature: 82.0 F (27.8 C)
Dew Point: 63.0 F (17.2 C)
Relative Humidity: 52%
Pressure (altimeter): 30.11 in. Hg (1019 hPa)
ob: KEWR 010051Z 16005KT 10SM FEW070 FEW250 28/17 A3011 RMK AO2 SLP195 T02780172
cycle: 1

Station Type Date Time Source
KEWR TAF 2022/06/30 21:45 UTC NOAA

TAF
AMD KEWR 302041Z 3021/0124 25010KT P6SM SCT070
FM010000 23006KT P6SM FEW070
TEMPO 0100/0102 15007KT
FM011300 22010G17KT P6SM SCT050 SCT250
FM012100 22015G25KT P6SM BKN250

Example: see airport list